Time;durP1;ratioP1;P1;durP2;ratioP2;P2;SDS_P1;SDS_P2;PMS_P1;PMS_P2;Temp;Humidity;BMP_temperature;BMP_pressure;BME280_temperature;BME280_humidity;BME280_pressure;Samples;Min_cycle;Max_cycle;Signal;HPM_P1;HPM_P2
2023/10/15 00:00:13;;;;;;;12.15;4.80;;;;;;;5.52;100.00;101834.47;6216182;23;20034;-78
2023/10/15 00:02:43;;;;;;;11.32;5.20;;;;;;;5.60;100.00;101840.19;6216396;23;20100;-81
2023/10/15 00:05:10;;;;;;;11.70;5.05;;;;;;;5.62;100.00;101836.75;6215993;23;20016;-79
2023/10/15 00:07:35;;;;;;;10.75;4.75;;;;;;;5.74;100.00;101838.13;6216512;23;20005;-77
2023/10/15 00:10:00;;;;;;;8.82;4.18;;;;;;;5.69;100.00;101832.28;6215872;23;20012;-75
2023/10/15 00:12:26;;;;;;;10.23;3.83;;;;;;;5.84;100.00;101834.44;6216054;23;20426;-75
2023/10/15 00:14:51;;;;;;;11.68;4.13;;;;;;;6.02;100.00;101845.97;6215635;23;20437;-79
2023/10/15 00:17:16;;;;;;;16.90;6.72;;;;;;;6.09;100.00;101850.00;6215979;23;20005;-79
2023/10/15 00:19:42;;;;;;;16.02;7.22;;;;;;;6.18;100.00;101848.91;6215889;23;20008;-81
2023/10/15 00:22:07;;;;;;;12.02;5.50;;;;;;;6.25;100.00;101855.56;6215919;23;20009;-79
2023/10/15 00:24:33;;;;;;;11.13;4.60;;;;;;;6.31;100.00;101847.69;6215494;23;20004;-78
2023/10/15 00:26:58;;;;;;;10.90;4.32;;;;;;;6.37;100.00;101841.53;6215861;23;20004;-77
2023/10/15 00:29:25;;;;;;;10.13;4.50;;;;;;;6.35;100.00;101833.88;6215982;23;20004;-78
2023/10/15 00:31:50;;;;;;;12.10;4.22;;;;;;;6.48;100.00;101842.06;6215987;23;20028;-79
2023/10/15 00:34:17;;;;;;;10.52;4.10;;;;;;;6.51;100.00;101834.28;6216026;23;20415;-75
2023/10/15 00:36:42;;;;;;;11.40;5.07;;;;;;;6.48;100.00;101835.19;6215970;23;20012;-78
2023/10/15 00:39:20;;;;;;;9.02;4.00;;;;;;;6.52;100.00;101835.97;6215911;23;20007;-75
2023/10/15 00:41:47;;;;;;;10.75;4.93;;;;;;;6.51;100.00;101837.69;6215688;23;20005;-79
2023/10/15 00:44:14;;;;;;;10.38;4.43;;;;;;;6.52;100.00;101834.22;6215919;23;20385;-74
2023/10/15 00:46:40;;;;;;;10.98;4.40;;;;;;;6.54;100.00;101826.47;6216119;23;20003;-76
2023/10/15 00:49:10;;;;;;;8.30;4.05;;;;;;;6.44;100.00;101807.97;6215684;23;20036;-75
2023/10/15 00:51:44;;;;;;;7.40;3.55;;;;;;;6.50;100.00;101817.22;6216284;23;20007;-76
2023/10/15 00:54:15;;;;;;;8.85;3.50;;;;;;;6.42;100.00;101807.19;6215868;23;20000;-74
2023/10/15 00:56:44;;;;;;;9.00;3.72;;;;;;;6.52;100.00;101810.31;6215817;23;20000;-76
2023/10/15 00:59:19;;;;;;;11.32;3.58;;;;;;;6.53;100.00;101804.28;6215942;23;20454;-78
2023/10/15 01:02:03;;;;;;;9.63;3.30;;;;;;;6.46;100.00;101793.34;6215534;23;20012;-78
2023/10/15 01:04:34;;;;;;;9.02;3.35;;;;;;;6.51;100.00;101795.78;6216117;23;20012;-79
2023/10/15 01:07:13;;;;;;;8.07;3.30;;;;;;;6.63;100.00;101823.66;6215421;23;20486;-79
2023/10/15 01:09:42;;;;;;;8.48;3.00;;;;;;;6.60;100.00;101809.19;6215408;23;20017;-75
2023/10/15 01:12:23;;;;;;;8.40;2.83;;;;;;;6.68;100.00;101802.94;6215339;23;20009;-76
2023/10/15 01:14:48;;;;;;;12.23;2.85;;;;;;;6.68;100.00;101798.66;6215701;23;20004;-77
2023/10/15 01:17:13;;;;;;;9.05;3.08;;;;;;;6.73;100.00;101809.63;6215526;23;20078;-80
2023/10/15 01:19:39;;;;;;;6.15;2.60;;;;;;;6.73;100.00;101819.06;6215497;23;20008;-74
2023/10/15 01:22:08;;;;;;;7.82;2.58;;;;;;;6.73;100.00;101813.94;6215161;23;20075;-75
2023/10/15 01:24:41;;;;;;;5.03;1.38;;;;;;;6.74;100.00;101800.22;6215474;23;20005;-80
2023/10/15 01:27:09;;;;;;;3.63;1.00;;;;;;;6.89;100.00;101784.34;6215023;23;20015;-78
2023/10/15 01:29:35;;;;;;;3.97;1.05;;;;;;;6.94;100.00;101797.84;6215446;23;20007;-78
2023/10/15 01:32:11;;;;;;;3.85;1.20;;;;;;;6.87;100.00;101784.34;6215521;23;20000;-76
2023/10/15 01:34:48;;;;;;;2.97;0.95;;;;;;;6.95;100.00;101807.22;6212642;23;20008;-80
2023/10/15 01:39:51;;;;;;;6.90;1.55;;;;;;;6.98;100.00;101804.56;6215449;23;20009;-78
2023/10/15 01:47:45;;;;;;;3.95;1.33;;;;;;;6.84;100.00;101852.94;6225448;23;20016;-76
2023/10/15 01:50:15;;;;;;;6.35;1.67;;;;;;;6.78;100.00;101833.41;6214734;23;20477;-74
2023/10/15 01:52:43;;;;;;;4.60;1.60;;;;;;;6.61;100.00;101821.13;6215044;23;20004;-76
2023/10/15 01:55:09;;;;;;;5.68;1.85;;;;;;;6.37;100.00;101803.88;6214848;23;20008;-77
2023/10/15 01:57:37;;;;;;;6.35;1.90;;;;;;;6.41;100.00;101815.75;6214733;23;20005;-80
2023/10/15 02:00:14;;;;;;;5.95;2.10;;;;;;;6.31;100.00;101810.06;6215214;23;20423;-80
2023/10/15 02:02:43;;;;;;;8.05;2.38;;;;;;;6.28;100.00;101796.47;6214783;23;20039;-78
2023/10/15 02:05:28;;;;;;;9.32;2.33;;;;;;;6.02;100.00;101758.78;6214838;23;20008;-76
2023/10/15 02:07:56;;;;;;;5.25;2.10;;;;;;;6.11;100.00;101791.84;6215047;23;20001;-78
2023/10/15 02:10:21;;;;;;;4.28;1.52;;;;;;;5.99;100.00;101792.19;6215039;23;20009;-80
2023/10/15 02:12:51;;;;;;;6.18;1.70;;;;;;;5.92;100.00;101794.09;6214660;23;20008;-80
2023/10/15 02:15:22;;;;;;;5.93;1.63;;;;;;;5.77;100.00;101784.22;6214748;23;20008;-80
2023/10/15 02:17:51;;;;;;;5.40;1.75;;;;;;;5.53;100.00;101770.38;6214798;23;20001;-81
2023/10/15 02:20:25;;;;;;;7.50;2.33;;;;;;;5.68;100.00;101802.41;6214742;23;20110;-76
2023/10/15 02:22:53;;;;;;;6.43;1.83;;;;;;;5.48;100.00;101782.44;6214947;23;20009;-78
2023/10/15 02:25:25;;;;;;;5.68;2.15;;;;;;;5.40;100.00;101792.88;6213417;23;20198;-76
2023/10/15 02:27:51;;;;;;;6.45;1.75;;;;;;;5.32;100.00;101776.91;6214617;23;20005;-81
2023/10/15 02:30:16;;;;;;;5.55;2.20;;;;;;;5.52;100.00;101802.00;6215055;23;20012;-77
2023/10/15 02:32:43;;;;;;;4.93;2.13;;;;;;;5.59;100.00;101795.81;6214685;23;20031;-77
2023/10/15 02:35:12;;;;;;;6.72;1.95;;;;;;;5.64;100.00;101793.13;6214675;23;20055;-84
2023/10/15 02:37:40;;;;;;;6.55;2.05;;;;;;;5.72;100.00;101819.41;6214401;23;20005;-78
2023/10/15 02:40:16;;;;;;;7.30;2.90;;;;;;;5.75;100.00;101866.28;6214825;23;20001;-81
2023/10/15 02:42:43;;;;;;;8.40;2.72;;;;;;;5.73;100.00;101849.28;6190114;23;20009;-76
2023/10/15 02:45:14;;;;;;;6.65;2.70;;;;;;;5.74;100.00;101846.66;6214754;23;20012;-81
2023/10/15 02:47:48;;;;;;;7.00;2.88;;;;;;;5.88;100.00;101891.59;6214827;23;20008;-82
2023/10/15 02:50:18;;;;;;;6.07;2.50;;;;;;;5.77;100.00;101871.38;6214721;23;20005;-78
2023/10/15 02:52:44;;;;;;;8.32;2.97;;;;;;;5.58;100.00;101853.06;6214822;23;19996;-76
2023/10/15 02:55:14;;;;;;;6.57;2.10;;;;;;;5.56;100.00;101867.63;6214759;23;20005;-78
2023/10/15 02:57:41;;;;;;;4.13;1.83;;;;;;;5.46;100.00;101856.78;6214347;23;20372;-80
2023/10/15 03:00:28;;;;;;;4.72;1.75;;;;;;;5.36;100.00;101846.81;6214255;23;20005;-80
2023/10/15 03:02:57;;;;;;;6.70;1.70;;;;;;;5.46;100.00;101848.25;6214532;23;20063;-76
2023/10/15 03:05:30;;;;;;;5.93;1.90;;;;;;;5.46;100.00;101851.66;6212346;23;20276;-77
2023/10/15 03:07:59;;;;;;;6.97;2.33;;;;;;;5.46;100.00;101848.25;6214467;23;20027;-76
2023/10/15 03:10:30;;;;;;;5.68;2.65;;;;;;;5.40;100.00;101833.88;6214447;23;20036;-78
2023/10/15 03:12:59;;;;;;;7.05;2.70;;;;;;;5.44;100.00;101843.19;6214583;23;20381;-76
2023/10/15 03:15:25;;;;;;;6.47;2.47;;;;;;;5.52;100.00;101862.66;6214682;23;20087;-80
2023/10/15 03:17:50;;;;;;;7.45;3.00;;;;;;;5.47;100.00;101848.22;6214369;23;20068;-80
2023/10/15 03:22:45;;;;;;;6.90;2.45;;;;;;;5.63;100.00;101860.66;6224643;23;20066;-77
2023/10/15 03:25:13;;;;;;;7.03;2.20;;;;;;;5.44;100.00;101838.06;6214438;23;20031;-77
2023/10/15 03:27:40;;;;;;;5.78;2.25;;;;;;;5.49;100.00;101832.81;6211683;23;20035;-76
2023/10/15 03:30:09;;;;;;;3.08;2.00;;;;;;;5.43;100.00;101827.84;6214330;23;20028;-76
2023/10/15 03:32:40;;;;;;;5.18;1.92;;;;;;;5.53;100.00;101847.22;6214203;23;20031;-79
2023/10/15 03:35:08;;;;;;;4.43;1.92;;;;;;;5.44;100.00;101829.53;6214354;23;20000;-78
2023/10/15 03:37:38;;;;;;;5.63;2.30;;;;;;;5.44;100.00;101844.91;6214430;23;20086;-80
2023/10/15 03:40:12;;;;;;;4.97;1.70;;;;;;;5.52;100.00;101862.66;6214334;23;20000;-75
2023/10/15 03:42:40;;;;;;;7.20;2.33;;;;;;;5.64;100.00;101882.81;6213924;23;20009;-73
2023/10/15 03:45:16;;;;;;;4.45;2.30;;;;;;;5.64;100.00;101883.66;6214478;23;20474;-75
2023/10/15 03:47:46;;;;;;;5.13;2.13;;;;;;;5.64;100.00;101878.53;6214343;23;19997;-80
2023/10/15 03:50:15;;;;;;;4.63;2.10;;;;;;;5.45;100.00;101849.13;6214902;23;20005;-73
2023/10/15 03:52:40;;;;;;;6.35;2.40;;;;;;;5.46;100.00;101864.47;6216802;23;20004;-74
2023/10/15 03:55:05;;;;;;;5.40;2.30;;;;;;;5.59;100.00;101890.59;6217256;23;20005;-74
2023/10/15 03:57:36;;;;;;;3.78;2.05;;;;;;;5.62;100.00;101888.00;6216485;23;20367;-74
2023/10/15 04:00:06;;;;;;;6.28;1.90;;;;;;;5.62;100.00;101880.31;6215903;23;20004;-73
2023/10/15 04:05:20;;;;;;;5.53;1.88;;;;;;;5.64;100.00;101854.63;6216212;23;20395;-73
2023/10/15 04:07:48;;;;;;;5.25;2.35;;;;;;;5.56;100.00;101854.84;6216024;23;20004;-79
2023/10/15 04:10:15;;;;;;;4.72;1.90;;;;;;;5.60;100.00;101860.69;6188196;23;20020;-74
2023/10/15 04:12:43;;;;;;;2.25;1.48;;;;;;;5.56;100.00;101859.94;6189252;23;20450;-81
2023/10/15 04:15:22;;;;;;;6.05;2.03;;;;;;;5.40;100.00;101848.41;6215951;23;20012;-75
2023/10/15 04:17:51;;;;;;;4.05;1.55;;;;;;;5.43;100.00;101858.59;6215876;23;20015;-76
2023/10/15 04:20:28;;;;;;;5.00;1.80;;;;;;;5.27;100.00;101842.75;6215840;23;20028;-76
2023/10/15 04:22:54;;;;;;;4.57;1.70;;;;;;;5.42;100.00;101869.72;6215960;23;20008;-74
2023/10/15 04:25:26;;;;;;;5.70;2.28;;;;;;;5.46;100.00;101879.00;6215578;23;20004;-83
2023/10/15 04:27:52;;;;;;;4.75;2.25;;;;;;;5.48;100.00;101870.38;6215834;23;20091;-74
2023/10/15 04:30:18;;;;;;;5.20;2.28;;;;;;;5.37;100.00;101854.44;6215373;23;20419;-74
2023/10/15 04:35:11;;;;;;;7.05;2.88;;;;;;;5.50;100.00;101870.34;6225979;23;20023;-74
2023/10/15 04:37:38;;;;;;;5.28;3.00;;;;;;;5.18;100.00;101815.66;6215519;23;20000;-74
2023/10/15 04:40:11;;;;;;;7.15;3.28;;;;;;;5.54;100.00;101861.72;6215589;23;20478;-74
2023/10/15 04:42:48;;;;;;;6.55;3.53;;;;;;;5.62;100.00;101872.63;6215547;23;20439;-75
2023/10/15 04:45:23;;;;;;;10.20;3.97;;;;;;;5.48;100.00;101846.50;6215681;23;20001;-76
2023/10/15 04:47:59;;;;;;;6.78;4.35;;;;;;;5.69;100.00;101861.31;6215501;23;20004;-75
2023/10/15 04:50:29;;;;;;;6.78;4.70;;;;;;;5.60;100.00;101841.03;6215611;23;20005;-83
2023/10/15 04:53:12;;;;;;;7.35;4.40;;;;;;;5.69;100.00;101861.31;6188706;23;19997;-77
2023/10/15 04:55:39;;;;;;;9.18;4.75;;;;;;;5.45;100.00;101837.16;6215528;23;20012;-74
2023/10/15 04:58:05;;;;;;;5.75;4.20;;;;;;;5.42;100.00;101827.00;6215828;23;20009;-75
2023/10/15 05:00:33;;;;;;;9.35;4.38;;;;;;;5.40;100.00;101849.25;6215390;23;20323;-75
2023/10/15 05:02:58;;;;;;;5.63;3.85;;;;;;;5.25;100.00;101852.19;6215515;23;20086;-77
2023/10/15 05:05:24;;;;;;;5.32;3.67;;;;;;;5.15;100.00;101846.47;6215731;23;20009;-74
2023/10/15 05:07:49;;;;;;;5.57;4.07;;;;;;;5.08;100.00;101860.28;6215417;23;20008;-75
2023/10/15 05:10:14;;;;;;;6.82;4.00;;;;;;;5.11;100.00;101873.03;6215113;23;20036;-78
2023/10/15 05:12:40;;;;;;;8.05;4.03;;;;;;;5.02;100.00;101857.03;6213370;23;20013;-75
2023/10/15 05:15:06;;;;;;;8.45;4.07;;;;;;;4.95;100.00;101853.78;6215185;23;20249;-84
2023/10/15 05:17:31;;;;;;;6.70;4.38;;;;;;;4.90;100.00;101863.25;6215402;23;20013;-73
2023/10/15 05:19:57;;;;;;;8.02;4.40;;;;;;;4.79;100.00;101855.81;6215592;23;20005;-75
2023/10/15 05:22:22;;;;;;;8.13;3.88;;;;;;;4.88;100.00;101865.84;6215298;23;20063;-74
2023/10/15 05:24:48;;;;;;;7.70;4.63;;;;;;;4.86;100.00;101851.41;6215207;23;20541;-74
2023/10/15 05:27:13;;;;;;;7.65;4.95;;;;;;;5.03;100.00;101868.97;6213189;23;20001;-74
2023/10/15 05:29:39;;;;;;;8.20;5.80;;;;;;;5.11;100.00;101877.28;6214846;23;20438;-75
2023/10/15 05:32:06;;;;;;;10.00;6.03;;;;;;;5.21;100.00;101890.69;6215159;23;20020;-76
2023/10/15 05:34:31;;;;;;;9.48;5.85;;;;;;;5.30;100.00;101885.38;6215210;23;20005;-74
2023/10/15 05:36:57;;;;;;;10.48;6.75;;;;;;;5.34;100.00;101889.56;6215235;23;20441;-75
2023/10/15 05:39:24;;;;;;;9.35;6.25;;;;;;;5.40;100.00;101890.22;6215439;23;20020;-77
2023/10/15 05:41:49;;;;;;;9.77;6.93;;;;;;;5.41;100.00;101891.94;6215005;23;20055;-76
2023/10/15 05:44:18;;;;;;;12.07;6.55;;;;;;;5.33;100.00;101863.09;6215418;23;20008;-80
2023/10/15 05:46:43;;;;;;;10.18;6.10;;;;;;;5.38;100.00;101871.50;6215038;23;20456;-77
2023/10/15 05:49:11;;;;;;;9.68;5.82;;;;;;;5.49;100.00;101884.03;6215132;23;20005;-80
2023/10/15 05:51:36;;;;;;;7.85;4.15;;;;;;;5.30;100.00;101860.59;6187947;23;20019;-79
2023/10/15 05:54:02;;;;;;;7.00;3.20;;;;;;;5.38;100.00;101892.00;6215224;23;20071;-79
2023/10/15 05:56:28;;;;;;;5.15;2.50;;;;;;;5.36;100.00;101892.91;6215348;23;20445;-76
2023/10/15 05:58:53;;;;;;;6.78;2.35;;;;;;;5.38;100.00;101901.41;6215294;23;20005;-78
2023/10/15 06:01:18;;;;;;;7.75;2.33;;;;;;;5.22;100.00;101877.88;6214825;23;20051;-75
2023/10/15 06:03:46;;;;;;;4.20;1.90;;;;;;;5.29;100.00;101899.88;6214820;23;20011;-83
2023/10/15 06:06:11;;;;;;;3.28;1.63;;;;;;;5.32;100.00;101902.41;6214886;23;20005;-83
2023/10/15 06:08:36;;;;;;;4.10;1.65;;;;;;;5.39;100.00;101911.59;6214998;23;20510;-79
2023/10/15 06:11:02;;;;;;;3.95;1.70;;;;;;;5.36;100.00;101916.81;6214841;23;20013;-80
2023/10/15 06:13:28;;;;;;;4.65;1.52;;;;;;;5.41;100.00;101922.69;6214750;23;20066;-77
2023/10/15 06:15:53;;;;;;;4.93;1.30;;;;;;;5.28;100.00;101902.50;6214543;23;20000;-76
2023/10/15 06:18:19;;;;;;;3.60;1.50;;;;;;;5.42;100.00;101923.50;6212201;23;20016;-74
2023/10/15 06:20:49;;;;;;;4.93;1.10;;;;;;;5.44;100.00;101935.41;6214916;23;20059;-77
2023/10/15 06:23:14;;;;;;;4.72;1.30;;;;;;;5.35;100.00;101904.88;6214769;23;20434;-74
2023/10/15 06:25:40;;;;;;;4.85;1.58;;;;;;;5.42;100.00;101905.59;6212767;23;20011;-80
2023/10/15 06:28:05;;;;;;;4.80;1.40;;;;;;;5.29;100.00;101879.41;6215036;23;20418;-72
2023/10/15 06:30:31;;;;;;;5.40;1.40;;;;;;;5.14;100.00;101869.53;6214512;23;20005;-74
2023/10/15 06:32:56;;;;;;;6.10;1.50;;;;;;;5.48;100.00;101924.19;6214893;23;20035;-72
2023/10/15 06:35:25;;;;;;;4.75;1.55;;;;;;;5.52;100.00;101912.16;6214487;23;20323;-80
2023/10/15 06:37:52;;;;;;;3.92;1.35;;;;;;;5.55;100.00;101924.88;6214596;23;20441;-75
2023/10/15 06:40:17;;;;;;;3.83;1.42;;;;;;;5.47;100.00;101906.28;6214506;23;20443;-77
2023/10/15 06:42:44;;;;;;;3.30;1.38;;;;;;;5.43;100.00;101923.47;6214860;23;20005;-82
2023/10/15 06:45:10;;;;;;;5.70;1.73;;;;;;;5.42;100.00;101933.75;6211637;23;20011;-76
2023/10/15 06:47:36;;;;;;;6.10;1.52;;;;;;;5.08;100.00;101891.00;6187436;23;20004;-75
2023/10/15 06:50:06;;;;;;;4.75;1.55;;;;;;;5.31;100.00;101930.59;6212704;23;20450;-74
2023/10/15 06:52:36;;;;;;;3.58;1.52;;;;;;;5.24;100.00;101929.06;6216627;23;20423;-73
2023/10/15 06:55:03;;;;;;;5.40;1.40;;;;;;;5.40;100.00;101944.00;6215402;23;20036;-78
2023/10/15 06:57:29;;;;;;;4.18;1.60;;;;;;;5.28;100.00;101923.81;6214663;23;20007;-77
2023/10/15 06:59:54;;;;;;;4.10;1.55;;;;;;;5.44;100.00;101953.34;6214716;23;20076;-82
2023/10/15 07:02:20;;;;;;;3.42;1.75;;;;;;;5.51;100.00;101951.47;6214331;23;20012;-80
2023/10/15 07:04:45;;;;;;;4.18;1.77;;;;;;;5.68;100.00;101961.28;6214729;23;20014;-75
2023/10/15 07:07:11;;;;;;;5.95;2.05;;;;;;;5.69;100.00;101947.59;6214225;23;20422;-75
2023/10/15 07:09:40;;;;;;;5.90;1.73;;;;;;;5.83;100.00;101963.50;6187791;23;20016;-83
2023/10/15 07:12:18;;;;;;;7.05;2.10;;;;;;;4.98;100.00;101807.63;6209390;23;20459;-81
2023/10/15 07:14:53;;;;;;;5.72;1.73;;;;;;;5.37;100.00;101866.41;6214915;23;20075;-82
2023/10/15 07:17:18;;;;;;;6.80;2.08;;;;;;;6.06;100.00;101974.91;6214303;23;20079;-82
2023/10/15 07:19:44;;;;;;;4.60;1.80;;;;;;;5.64;100.00;101899.03;6214803;23;20078;-73
2023/10/15 07:22:09;;;;;;;2.55;1.40;;;;;;;6.30;100.00;101980.25;6186710;23;20088;-81
2023/10/15 07:24:35;;;;;;;6.63;2.10;;;;;;;6.52;100.00;101988.19;6215408;23;20009;-79
2023/10/15 07:27:01;;;;;;;4.68;1.65;;;;;;;6.59;100.00;101983.75;6216164;23;20079;-77
2023/10/15 07:29:28;;;;;;;3.58;1.70;;;;;;;6.60;100.00;101977.72;6216561;23;20008;-79
2023/10/15 07:31:53;;;;;;;7.07;1.58;;;;;;;6.71;100.00;101996.22;6216169;23;20004;-73
2023/10/15 07:34:19;;;;;;;3.85;1.63;;;;;;;6.76;100.00;102001.22;6216311;23;20016;-78
2023/10/15 07:36:45;;;;;;;4.53;1.50;;;;;;;6.65;100.00;101993.00;6216163;23;20004;-73
2023/10/15 07:39:11;;;;;;;4.72;1.83;;;;;;;6.76;100.00;102019.19;6189708;23;20000;-82
2023/10/15 07:41:37;;;;;;;5.55;1.50;;;;;;;6.72;100.00;102015.88;6216061;23;20468;-82
2023/10/15 07:44:02;;;;;;;4.50;1.48;;;;;;;6.72;100.00;102021.00;6216439;23;20005;-75
2023/10/15 07:46:29;;;;;;;4.65;1.52;;;;;;;6.77;100.00;102008.88;6216288;23;20074;-80
2023/10/15 07:48:55;;;;;;;3.67;1.40;;;;;;;6.88;100.00;102011.13;6216270;23;20304;-75
2023/10/15 07:51:20;;;;;;;4.45;1.30;;;;;;;6.85;100.00;102003.53;6216102;23;20032;-84
2023/10/15 07:53:46;;;;;;;4.93;1.30;;;;;;;6.87;100.00;102030.84;6215866;23;20055;-73
2023/10/15 07:56:14;;;;;;;4.32;1.35;;;;;;;6.81;100.00;102032.75;6215966;23;20005;-70
2023/10/15 07:58:42;;;;;;;6.63;1.45;;;;;;;6.76;100.00;102009.75;6216212;23;19996;-75
2023/10/15 08:01:08;;;;;;;5.47;1.80;;;;;;;6.84;100.00;102012.97;6216182;23;20007;-83
2023/10/15 08:03:33;;;;;;;5.30;1.75;;;;;;;6.94;100.00;102002.44;6216050;23;20004;-83
2023/10/15 08:06:02;;;;;;;3.25;1.17;;;;;;;7.07;100.00;102012.28;6215578;23;20414;-88
2023/10/15 08:08:28;;;;;;;3.97;1.50;;;;;;;7.04;100.00;101979.00;6216102;23;20083;-83
2023/10/15 08:10:55;;;;;;;7.32;2.05;;;;;;;7.29;100.00;102025.34;6215824;23;20058;-81
2023/10/15 08:13:21;;;;;;;6.43;1.83;;;;;;;7.32;100.00;102019.28;6216111;23;20001;-85
2023/10/15 08:15:46;;;;;;;5.07;1.70;;;;;;;7.33;100.00;102023.53;6215907;23;20115;-79
2023/10/15 08:18:15;;;;;;;4.40;1.58;;;;;;;7.23;100.00;102019.56;6215573;23;20000;-78
2023/10/15 08:20:40;;;;;;;7.93;2.47;;;;;;;7.31;100.00;102040.72;6189113;23;20019;-74
2023/10/15 08:23:06;;;;;;;7.05;2.28;;;;;;;7.34;100.00;102046.59;6215329;23;20335;-79
2023/10/15 08:25:31;;;;;;;6.60;2.38;;;;;;;7.53;100.00;102043.47;6215725;23;20005;-75
2023/10/15 08:27:57;;;;;;;4.55;2.00;;;;;;;7.75;100.00;102047.88;6214899;23;20013;-76
2023/10/15 08:30:22;;;;;;;5.10;1.77;;;;;;;8.06;100.00;102067.47;6215962;23;20008;-85
2023/10/15 08:32:48;;;;;;;4.97;1.75;;;;;;;8.13;100.00;102084.41;6215679;23;20108;-84
2023/10/15 08:35:15;;;;;;;5.85;1.63;;;;;;;8.08;100.00;102117.19;6215450;23;20072;-80
2023/10/15 08:37:41;;;;;;;5.55;2.20;;;;;;;7.87;100.00;102116.13;6215658;23;20031;-81
2023/10/15 08:40:07;;;;;;;6.35;2.03;;;;;;;7.76;100.00;102125.88;6215870;23;20067;-76
2023/10/15 08:42:41;;;;;;;7.32;2.50;;;;;;;7.64;100.00;102137.38;6215663;23;20015;-78
2023/10/15 08:45:08;;;;;;;6.97;2.10;;;;;;;7.54;100.00;102138.53;6215539;23;20032;-81
2023/10/15 08:47:34;;;;;;;4.32;1.67;;;;;;;7.39;100.00;102126.16;6215799;23;20351;-83
2023/10/15 08:50:00;;;;;;;6.20;1.50;;;;;;;7.36;100.00;102142.47;6215616;23;20004;-75
2023/10/15 08:52:27;;;;;;;6.43;2.40;;;;;;;7.37;100.00;102140.75;6215800;23;20000;-81
2023/10/15 08:54:56;;;;;;;5.47;1.67;;;;;;;7.36;100.00;102133.91;6215449;23;20005;-81
2023/10/15 08:57:21;;;;;;;4.90;1.48;;;;;;;7.39;100.00;102146.69;6215639;23;20454;-84
2023/10/15 08:59:49;;;;;;;5.63;1.02;;;;;;;7.23;100.00;102146.28;6215853;23;19997;-81
2023/10/15 09:02:15;;;;;;;4.00;1.02;;;;;;;6.98;100.00;102130.72;6215634;23;20008;-79
2023/10/15 09:04:40;;;;;;;5.70;1.10;;;;;;;7.10;100.00;102138.09;6215314;23;20004;-80
2023/10/15 09:07:07;;;;;;;5.30;1.13;;;;;;;7.13;100.00;102145.69;6215725;23;20000;-85
2023/10/15 09:09:33;;;;;;;4.18;1.10;;;;;;;7.10;100.00;102132.09;6216054;23;20334;-85
2023/10/15 09:11:59;;;;;;;4.57;0.98;;;;;;;7.24;100.00;102157.41;6214115;23;20423;-85
2023/10/15 09:14:48;;;;;;;5.47;1.27;;;;;;;7.35;100.00;102151.06;6215836;23;20083;-80
2023/10/15 09:17:16;;;;;;;3.80;1.00;;;;;;;7.55;100.00;102165.06;6189010;23;20411;-83
2023/10/15 09:19:43;;;;;;;3.42;1.17;;;;;;;7.79;100.00;102159.22;6188776;23;20015;-84
2023/10/15 09:22:16;;;;;;;4.40;1.35;;;;;;;7.99;100.00;102140.63;6215628;23;20009;-80
2023/10/15 09:24:45;;;;;;;4.68;1.40;;;;;;;8.18;100.00;102143.44;6215127;23;20423;-79
2023/10/15 09:27:13;;;;;;;4.28;1.30;;;;;;;8.23;100.00;102121.81;6215199;23;20001;-78
2023/10/15 09:29:38;;;;;;;4.88;1.40;;;;;;;8.57;100.00;102125.91;6215705;23;20009;-81
2023/10/15 09:32:04;;;;;;;4.60;1.40;;;;;;;8.62;100.00;102116.25;6215250;23;20004;-81
2023/10/15 09:34:30;;;;;;;4.80;1.30;;;;;;;8.94;100.00;102161.50;6215058;23;20438;-85
2023/10/15 09:36:58;;;;;;;4.05;1.33;;;;;;;8.96;100.00;102148.59;6215295;23;20004;-82
2023/10/15 09:39:26;;;;;;;5.25;1.50;;;;;;;9.16;100.00;102170.19;6213579;23;20043;-77
2023/10/15 09:41:53;;;;;;;4.15;0.93;;;;;;;9.34;100.00;102176.44;6215562;23;20062;-79
2023/10/15 09:44:19;;;;;;;4.13;1.20;;;;;;;9.36;100.00;102189.25;6215228;23;20009;-81
2023/10/15 09:46:45;;;;;;;4.53;1.20;;;;;;;9.22;100.00;102179.41;6212585;23;20011;-79
2023/10/15 09:49:12;;;;;;;5.18;1.08;;;;;;;9.19;100.00;102177.81;6215692;23;20338;-81
2023/10/15 09:51:38;;;;;;;2.83;0.90;;;;;;;9.20;100.00;102182.06;6216832;23;20008;-82
2023/10/15 09:54:06;;;;;;;2.78;0.90;;;;;;;9.19;100.00;102192.41;6216518;23;20335;-80
2023/10/15 09:56:34;;;;;;;2.67;1.02;;;;;;;9.02;100.00;102180.13;6215656;23;20422;-85
2023/10/15 09:59:02;;;;;;;3.28;1.10;;;;;;;9.06;100.00;102193.75;6215375;23;20490;-81
2023/10/15 10:01:30;;;;;;;3.45;1.00;;;;;;;9.15;100.00;102198.59;6214971;23;20422;-75
2023/10/15 10:04:40;;;;;;;3.08;0.85;;;;;;;9.15;100.00;102204.59;6215168;23;20366;-76
2023/10/15 10:07:16;;;;;;;4.28;1.10;;;;;;;9.04;100.00;102211.81;6214848;23;20001;-77
2023/10/15 10:10:00;;;;;;;3.88;1.10;;;;;;;9.15;100.00;102214.06;6215121;23;20103;-83
2023/10/15 10:12:58;;;;;;;5.97;1.10;;;;;;;9.31;100.00;102217.75;6214746;23;20042;-78
2023/10/15 10:15:36;;;;;;;4.93;0.90;;;;;;;9.31;100.00;102230.66;6213758;23;20024;-79
2023/10/15 10:18:03;;;;;;;4.32;0.98;;;;;;;9.31;100.00;102233.22;6214828;23;20001;-76
2023/10/15 10:20:33;;;;;;;5.47;0.90;;;;;;;9.19;100.00;102218.19;6214549;23;20027;-79
2023/10/15 10:23:05;;;;;;;5.40;1.10;;;;;;;9.13;100.00;102211.50;6214696;23;20008;-79
2023/10/15 10:25:32;;;;;;;4.63;0.88;;;;;;;9.39;100.00;102240.69;6215174;23;20011;-80
2023/10/15 10:28:06;;;;;;;4.72;1.25;;;;;;;9.50;100.00;102246.31;6214897;23;20087;-79
2023/10/15 10:30:32;;;;;;;2.97;1.10;;;;;;;9.59;100.00;102230.50;6214876;23;20004;-79
2023/10/15 10:33:02;;;;;;;3.63;1.10;;;;;;;9.62;100.00;102243.28;6214733;23;20016;-75
2023/10/15 10:35:27;;;;;;;2.97;1.10;;;;;;;9.61;100.00;102231.28;6214574;23;20009;-80
2023/10/15 10:38:12;;;;;;;5.57;1.10;;;;;;;9.57;100.00;102221.16;6214944;23;20051;-82
2023/10/15 10:40:43;;;;;;;4.20;0.93;;;;;;;9.62;100.00;102232.97;6215010;23;20011;-77
2023/10/15 10:43:19;;;;;;;4.40;1.10;;;;;;;9.44;100.00;102221.59;6214704;23;20059;-82
2023/10/15 10:45:51;;;;;;;2.60;0.93;;;;;;;9.37;100.00;102222.72;6214543;23;20008;-75
2023/10/15 10:48:33;;;;;;;3.35;1.08;;;;;;;9.34;100.00;102224.53;6214925;23;20004;-74
2023/10/15 10:51:18;;;;;;;;;;;;;;;9.33;100.00;102230.59;6214975;23;20000;-75
2023/10/15 10:53:56;;;;;;;3.55;0.90;;;;;;;9.14;100.00;102227.81;6214576;23;19962;-75
2023/10/15 10:56:22;;;;;;;3.17;0.90;;;;;;;8.70;100.00;102188.13;6214264;23;20004;-79
2023/10/15 10:58:51;;;;;;;5.60;0.90;;;;;;;8.88;100.00;102221.81;6215173;23;20032;-75
2023/10/15 11:01:17;;;;;;;5.78;1.30;;;;;;;8.82;100.00;102228.91;6216980;23;20019;-84
2023/10/15 11:03:44;;;;;;;5.88;1.17;;;;;;;8.70;100.00;102224.16;6214029;23;20008;-74
2023/10/15 11:06:10;;;;;;;6.63;1.52;;;;;;;8.53;100.00;102198.97;6216791;23;20055;-74
2023/10/15 11:08:35;;;;;;;2.72;1.00;;;;;;;8.71;100.00;102231.84;6190514;23;20011;-81
2023/10/15 11:11:01;;;;;;;4.75;1.08;;;;;;;8.30;100.00;102133.59;6216503;23;20323;-81
2023/10/15 11:13:29;;;;;;;8.27;1.55;;;;;;;8.46;100.00;102138.28;6216561;23;20416;-83
2023/10/15 11:15:57;;;;;;;5.50;1.35;;;;;;;8.79;100.00;102192.97;6216629;23;20331;-76
2023/10/15 11:18:23;;;;;;;3.85;1.00;;;;;;;8.83;100.00;102228.00;6216589;23;20011;-76
2023/10/15 11:20:52;;;;;;;3.28;0.93;;;;;;;8.98;100.00;102245.53;6216702;23;20000;-80
2023/10/15 11:23:18;;;;;;;2.55;1.05;;;;;;;8.47;100.00;102119.38;6216609;23;20430;-82
2023/10/15 11:25:45;;;;;;;4.80;1.20;;;;;;;8.77;100.00;102126.06;6215070;23;20007;-83
2023/10/15 11:28:11;;;;;;;6.28;1.15;;;;;;;9.88;100.00;102244.91;6216399;23;20349;-75
2023/10/15 11:30:41;;;;;;;4.93;1.10;;;;;;;10.06;100.00;102233.91;6216830;23;20005;-75
2023/10/15 11:33:10;;;;;;;6.00;1.40;;;;;;;10.21;100.00;102226.44;6216344;23;20016;-75
2023/10/15 11:35:37;;;;;;;3.83;0.90;;;;;;;10.01;100.00;102220.31;6216723;23;20005;-76
2023/10/15 11:38:08;;;;;;;3.42;0.98;;;;;;;9.94;100.00;102230.94;6216347;23;20005;-77
2023/10/15 11:40:37;;;;;;;4.85;1.20;;;;;;;9.65;100.00;102217.41;6189138;23;20012;-77
2023/10/15 11:43:03;;;;;;;4.15;1.10;;;;;;;9.77;100.00;102237.56;6216679;23;20008;-74
2023/10/15 11:45:31;;;;;;;4.82;1.20;;;;;;;9.91;100.00;102241.38;6216555;23;20071;-75